Portada
METAR-TAF:

METAR-TAF

Aeroports :

Aeroport de Beni Mellal

Beni Mellal, Marroc

latitud: 32-24-00N, longitud: 06-19-00W, altitud: 518 m

Observació

L'informe es va fer fa 29 minuts, a les 11:00 UTC
Vent 5 kt del Sud/Sud-Oest
Temperatura 19°C
Humitat 73%
Pressió 1018 hPa
Visibilitat 10 km o més
Cel ennuvolat a una alçada de 10000 ft

METAR: GMMD 151100Z 20005KT 9999 BKN100 19/14 Q1018 NOSIG

Hora: 12:29 (11:29 UTC)


TAF: manca

Observacions i pronòstics meteorològics de més de 4000 aeroports (METAR i TAF).

Les estacions disponibles són els punts grocs i vermells al mapa.

Posi el ratolí al punt desitjat per veure el nom de l'estació.

Feu clic per veure les observacions i els pronòstics meteorològics.

Per canviar el mapa: feu clic els botons verds amb una creu de color negre per apropar; al botó verd amb un guió per allunyar la imatge; o en les fletxes verdes per a mapes adjacents.


METAR-TAF: